createdAt,value
2018-07-06T00:00:17.797Z,70.19
2018-07-06T00:01:17.784Z,70.56
2018-07-06T00:02:17.779Z,70.50
2018-07-06T00:03:17.826Z,70.90
2018-07-06T00:04:17.751Z,70.90
2018-07-06T00:05:17.738Z,70.90
2018-07-06T00:06:17.728Z,71.30
2018-07-06T00:07:17.717Z,71.40
2018-07-06T00:08:17.794Z,71.70
2018-07-06T00:09:17.699Z,72.00
2018-07-06T00:10:17.681Z,71.64
2018-07-06T00:11:17.673Z,72.00
2018-07-06T00:12:17.661Z,72.20
2018-07-06T00:13:17.658Z,72.14
2018-07-06T00:14:17.712Z,72.14
2018-07-06T00:15:17.634Z,72.54
2018-07-06T00:16:17.620Z,72.85
2018-07-06T00:17:17.611Z,73.25
2018-07-06T00:18:17.591Z,72.64
2018-07-06T00:19:17.653Z,72.61
2018-07-06T00:20:17.578Z,73.35
2018-07-06T00:21:17.557Z,73.11
2018-07-06T00:22:17.544Z,73.14
2018-07-06T00:23:17.536Z,73.05
2018-07-06T00:24:17.602Z,73.05
2018-07-06T00:25:17.518Z,73.35
2018-07-06T00:26:17.506Z,72.85
2018-07-06T00:27:17.497Z,73.55
2018-07-06T00:28:17.476Z,73.45
2018-07-06T00:29:17.528Z,72.54
2018-07-06T00:30:17.459Z,73.68
2018-07-06T00:31:17.443Z,73.65
2018-07-06T00:32:17.440Z,73.68
2018-07-06T00:33:17.418Z,73.65
2018-07-06T00:34:17.482Z,73.88
2018-07-06T00:35:17.397Z,74.29
2018-07-06T00:36:17.398Z,73.68
2018-07-06T00:37:17.377Z,73.62
2018-07-06T00:38:17.366Z,73.62
2018-07-06T00:39:17.421Z,73.72
2018-07-06T00:40:17.346Z,74.22
2018-07-06T00:41:17.330Z,74.63
2018-07-06T00:42:17.324Z,74.52
2018-07-06T00:43:17.320Z,74.73
2018-07-06T00:44:17.365Z,74.63
2018-07-06T00:45:17.283Z,74.52
2018-07-06T00:46:17.278Z,74.93
2018-07-06T00:47:17.271Z,74.83
2018-07-06T00:48:17.256Z,74.93
2018-07-06T00:49:17.306Z,75.13
2018-07-06T00:50:17.234Z,75.43
2018-07-06T00:51:17.222Z,75.77
2018-07-06T00:52:17.208Z,75.87
2018-07-06T00:53:17.197Z,76.38
2018-07-06T00:54:17.250Z,76.38
2018-07-06T00:55:17.177Z,76.24
2018-07-06T00:56:17.167Z,76.58
2018-07-06T00:57:17.151Z,76.38
2018-07-06T00:58:17.143Z,76.68
2018-07-06T00:59:17.203Z,76.68
2018-07-06T01:00:17.118Z,76.88
2018-07-06T01:01:17.110Z,76.88
2018-07-06T01:02:17.099Z,76.78
2018-07-06T01:03:17.084Z,76.78
2018-07-06T01:04:17.134Z,76.78
2018-07-06T01:05:17.064Z,77.19
2018-07-06T01:06:17.051Z,77.28
2018-07-06T01:07:17.038Z,77.59
2018-07-06T01:08:17.030Z,77.28
2018-07-06T01:09:17.083Z,77.59
2018-07-06T01:10:17.023Z,77.49
2018-07-06T01:11:16.991Z,77.49
2018-07-06T01:12:16.988Z,77.79
2018-07-06T01:13:16.976Z,77.59
2018-07-06T01:14:17.020Z,77.89
2018-07-06T01:15:16.959Z,77.79
2018-07-06T01:16:16.940Z,78.19
2018-07-06T01:17:16.926Z,78.30
2018-07-06T01:18:16.915Z,77.79
2018-07-06T01:19:16.972Z,78.30
2018-07-06T01:20:16.897Z,78.50
2018-07-06T01:21:16.883Z,78.70
2018-07-06T01:22:16.869Z,78.43
2018-07-06T01:23:16.859Z,79.00
2018-07-06T01:24:16.918Z,79.24
2018-07-06T01:25:16.842Z,79.24
2018-07-06T01:26:16.822Z,79.30
2018-07-06T01:27:16.823Z,79.00
2018-07-06T01:28:16.803Z,79.54
2018-07-06T01:29:16.859Z,79.64
2018-07-06T01:30:16.783Z,79.41
2018-07-06T01:31:16.769Z,79.44
2018-07-06T01:32:16.760Z,79.34
2018-07-06T01:33:16.749Z,79.74
2018-07-06T01:34:16.802Z,79.64
2018-07-06T01:35:16.729Z,79.85
2018-07-06T01:36:16.716Z,80.25
2018-07-06T01:37:16.700Z,79.94
2018-07-06T01:38:16.698Z,80.08
2018-07-06T01:39:16.748Z,80.08
2018-07-06T01:40:16.675Z,80.39
2018-07-06T01:41:16.665Z,80.25
2018-07-06T01:42:16.654Z,80.49
2018-07-06T01:43:16.643Z,80.49
2018-07-06T01:44:16.690Z,80.69
2018-07-06T01:45:16.614Z,80.59
2018-07-06T01:46:16.604Z,80.79
2018-07-06T01:47:16.595Z,80.79
2018-07-06T01:48:16.582Z,80.49
2018-07-06T01:49:16.635Z,80.69
2018-07-06T01:50:16.565Z,80.79
2018-07-06T01:51:16.545Z,80.99
2018-07-06T01:52:16.545Z,80.79
2018-07-06T01:53:16.528Z,80.99
2018-07-06T01:54:16.514Z,82.24
2018-07-06T01:55:16.563Z,81.70
2018-07-06T01:56:16.487Z,81.44
2018-07-06T01:57:16.486Z,81.44
2018-07-06T01:58:16.477Z,82.14
2018-07-06T01:59:16.462Z,81.94
2018-07-06T02:00:16.512Z,81.84
2018-07-06T02:01:16.448Z,81.78
2018-07-06T02:02:16.434Z,82.75
2018-07-06T02:03:16.416Z,82.45
2018-07-06T02:04:16.410Z,82.65
2018-07-06T02:05:16.454Z,82.59
2018-07-06T02:06:16.382Z,83.70
2018-07-06T02:07:16.375Z,83.66
2018-07-06T02:08:16.361Z,83.15
2018-07-06T02:09:16.355Z,83.19
2018-07-06T02:10:16.406Z,83.09
2018-07-06T02:11:16.328Z,83.09
2018-07-06T02:12:16.322Z,83.09
2018-07-06T02:13:16.310Z,83.09
2018-07-06T02:14:16.296Z,83.19
2018-07-06T02:15:16.358Z,83.09
2018-07-06T02:16:16.278Z,83.70
2018-07-06T02:17:16.263Z,83.70
2018-07-06T02:18:16.261Z,83.50
2018-07-06T02:19:16.245Z,83.70
2018-07-06T02:20:16.299Z,84.31
2018-07-06T02:21:16.226Z,83.70
2018-07-06T02:22:16.223Z,83.60
2018-07-06T02:23:16.197Z,84.11
2018-07-06T02:24:16.188Z,84.14
2018-07-06T02:25:16.248Z,84.95
2018-07-06T02:26:16.164Z,85.16
2018-07-06T02:27:16.161Z,85.05
2018-07-06T02:28:16.145Z,84.95
2018-07-06T02:29:16.129Z,85.05
2018-07-06T02:30:16.189Z,84.85
2018-07-06T02:31:16.110Z,84.85
2018-07-06T02:32:16.104Z,85.05
2018-07-06T02:33:16.088Z,84.85
2018-07-06T02:34:16.076Z,84.95
2018-07-06T02:35:16.144Z,85.05
2018-07-06T02:36:16.051Z,85.36
2018-07-06T02:37:16.047Z,84.85
2018-07-06T02:38:16.044Z,85.05
2018-07-06T02:39:16.012Z,85.36
2018-07-06T02:40:16.074Z,85.46
2018-07-06T02:41:16.007Z,85.30
2018-07-06T02:42:15.994Z,85.16
2018-07-06T02:43:15.979Z,85.76
2018-07-06T02:44:15.966Z,85.56
2018-07-06T02:45:16.017Z,85.16
2018-07-06T02:46:15.945Z,85.76
2018-07-06T02:47:15.933Z,85.70
2018-07-06T02:48:15.919Z,85.19
2018-07-06T02:49:15.927Z,85.80
2018-07-06T02:50:15.972Z,85.30
2018-07-06T02:51:15.894Z,85.80
2018-07-06T02:52:15.882Z,85.80
2018-07-06T02:53:15.876Z,86.00
2018-07-06T02:54:15.855Z,85.90
2018-07-06T02:55:15.986Z,86.00
2018-07-06T02:56:15.837Z,86.21
2018-07-06T02:57:15.825Z,86.25
2018-07-06T02:58:15.815Z,86.55
2018-07-06T02:59:15.828Z,86.65
2018-07-06T03:00:15.865Z,86.65
2018-07-06T03:01:15.780Z,86.35
2018-07-06T03:02:15.766Z,87.16
2018-07-06T03:03:15.763Z,87.36
2018-07-06T03:04:15.755Z,87.56
2018-07-06T03:05:15.797Z,87.66
2018-07-06T03:06:15.723Z,86.96
2018-07-06T03:07:15.713Z,87.16
2018-07-06T03:08:15.714Z,87.66
2018-07-06T03:09:15.682Z,87.46
2018-07-06T03:10:15.748Z,87.66
2018-07-06T03:11:15.676Z,86.96
2018-07-06T03:12:15.669Z,87.46
2018-07-06T03:13:15.652Z,87.56
2018-07-06T03:14:15.639Z,87.56
2018-07-06T03:15:15.680Z,87.71
2018-07-06T03:16:15.615Z,87.60
2018-07-06T03:17:15.602Z,87.30
2018-07-06T03:18:15.602Z,88.01
2018-07-06T03:19:15.599Z,88.17
2018-07-06T03:20:15.641Z,87.81
2018-07-06T03:21:15.563Z,87.81
2018-07-06T03:22:15.552Z,87.91
2018-07-06T03:23:15.543Z,88.21
2018-07-06T03:24:15.531Z,88.21
2018-07-06T03:25:15.579Z,88.72
2018-07-06T03:26:15.513Z,88.62
2018-07-06T03:27:15.495Z,88.72
2018-07-06T03:28:15.500Z,88.82
2018-07-06T03:29:15.473Z,89.12
2018-07-06T03:30:15.544Z,88.31
2018-07-06T03:31:15.452Z,88.51
2018-07-06T03:32:15.442Z,88.92
2018-07-06T03:33:15.434Z,88.82
2018-07-06T03:34:15.419Z,88.82
2018-07-06T03:35:15.487Z,88.82
2018-07-06T03:36:15.398Z,88.72
2018-07-06T03:37:15.391Z,88.51
2018-07-06T03:38:15.383Z,88.62
2018-07-06T03:39:15.369Z,88.11
2018-07-06T03:40:15.356Z,88.62
2018-07-06T03:41:15.401Z,88.82
2018-07-06T03:42:15.332Z,88.51
2018-07-06T03:43:15.314Z,88.92
2018-07-06T03:44:15.312Z,88.82
2018-07-06T03:45:15.291Z,88.42
2018-07-06T03:46:15.363Z,89.02
2018-07-06T03:47:15.279Z,88.72
2018-07-06T03:48:15.272Z,89.02
2018-07-06T03:49:15.263Z,88.11
2018-07-06T03:50:15.247Z,88.72
2018-07-06T03:51:15.304Z,89.02
2018-07-06T03:52:15.222Z,88.72
2018-07-06T03:53:15.216Z,88.92
2018-07-06T03:54:15.197Z,88.62
2018-07-06T03:55:15.191Z,89.32
2018-07-06T03:56:15.248Z,88.92
2018-07-06T03:57:15.166Z,89.02
2018-07-06T03:58:15.156Z,88.82
2018-07-06T03:59:15.144Z,88.82
2018-07-06T04:00:15.135Z,88.92
2018-07-06T04:01:15.196Z,88.82
2018-07-06T04:02:15.116Z,88.11
2018-07-06T04:03:15.101Z,89.02
2018-07-06T04:04:15.087Z,88.92
2018-07-06T04:05:15.076Z,88.82
2018-07-06T04:06:15.149Z,88.72
2018-07-06T04:07:15.055Z,88.82
2018-07-06T04:08:15.048Z,88.82
2018-07-06T04:09:15.055Z,88.72
2018-07-06T04:10:15.023Z,88.42
2018-07-06T04:11:15.073Z,88.62
2018-07-06T04:12:15.007Z,87.91
2018-07-06T04:13:15.120Z,88.37
2018-07-06T04:14:14.983Z,88.27
2018-07-06T04:15:14.976Z,88.62
2018-07-06T04:16:15.029Z,88.37
2018-07-06T04:17:14.946Z,88.37
2018-07-06T04:18:14.936Z,88.21
2018-07-06T04:19:14.925Z,88.17
2018-07-06T04:20:14.915Z,87.97
2018-07-06T04:21:14.971Z,88.27
2018-07-06T04:22:14.893Z,87.87
2018-07-06T04:23:14.884Z,87.97
2018-07-06T04:24:14.877Z,88.17
2018-07-06T04:25:14.860Z,88.17
2018-07-06T04:26:14.920Z,87.87
2018-07-06T04:27:14.836Z,87.46
2018-07-06T04:28:14.828Z,87.82
2018-07-06T04:29:14.822Z,87.52
2018-07-06T04:30:14.816Z,86.91
2018-07-06T04:31:14.859Z,87.42
2018-07-06T04:32:14.787Z,87.52
2018-07-06T04:33:14.773Z,86.91
2018-07-06T04:34:14.764Z,87.22
2018-07-06T04:35:14.750Z,87.52
2018-07-06T04:36:14.801Z,86.37
2018-07-06T04:37:14.736Z,85.96
2018-07-06T04:38:14.714Z,85.66
2018-07-06T04:39:14.705Z,85.66
2018-07-06T04:40:14.696Z,85.62
2018-07-06T04:41:14.740Z,85.42
2018-07-06T04:42:14.666Z,85.11
2018-07-06T04:43:14.665Z,85.72
2018-07-06T04:44:14.696Z,85.42
2018-07-06T04:45:14.640Z,84.71
2018-07-06T04:46:14.696Z,85.11
2018-07-06T04:47:14.626Z,85.02
2018-07-06T04:48:14.608Z,85.22
2018-07-06T04:49:14.600Z,85.02
2018-07-06T04:50:14.585Z,84.27
2018-07-06T04:51:14.655Z,85.28
2018-07-06T04:52:14.567Z,83.70
2018-07-06T04:53:14.557Z,84.17
2018-07-06T04:54:14.540Z,83.76
2018-07-06T04:55:14.532Z,83.66
2018-07-06T04:56:14.585Z,83.96
2018-07-06T04:57:14.510Z,83.66
2018-07-06T04:58:14.502Z,83.15
2018-07-06T04:59:14.538Z,83.05
2018-07-06T05:00:14.483Z,83.36
2018-07-06T05:01:14.526Z,82.81
2018-07-06T05:02:14.451Z,83.12
2018-07-06T05:03:14.443Z,82.51
2018-07-06T05:04:14.445Z,82.71
2018-07-06T05:05:14.424Z,82.10
2018-07-06T05:06:14.488Z,82.41
2018-07-06T05:07:14.396Z,83.22
2018-07-06T05:08:14.388Z,82.51
2018-07-06T05:09:14.378Z,82.91
2018-07-06T05:10:14.374Z,82.41
2018-07-06T05:11:14.429Z,82.61
2018-07-06T05:12:14.351Z,82.31
2018-07-06T05:13:14.332Z,83.22
2018-07-06T05:14:14.322Z,83.12
2018-07-06T05:15:14.312Z,82.10
2018-07-06T05:16:14.372Z,81.90
2018-07-06T05:17:14.292Z,81.50
2018-07-06T05:18:14.278Z,82.51
2018-07-06T05:19:14.273Z,81.70
2018-07-06T05:20:14.266Z,82.01
2018-07-06T05:21:14.249Z,81.67
2018-07-06T05:22:14.311Z,82.07
2018-07-06T05:23:14.233Z,81.96
2018-07-06T05:24:14.210Z,81.96
2018-07-06T05:25:14.206Z,82.17
2018-07-06T05:26:14.190Z,81.67
2018-07-06T05:27:14.262Z,81.56
2018-07-06T05:28:14.171Z,80.76
2018-07-06T05:29:14.163Z,80.21
2018-07-06T05:30:14.149Z,80.51
2018-07-06T05:31:14.135Z,80.96
2018-07-06T05:32:14.192Z,81.42
2018-07-06T05:33:14.123Z,81.32
2018-07-06T05:34:14.105Z,80.62
2018-07-06T05:35:14.092Z,81.02
2018-07-06T05:36:14.089Z,80.41
2018-07-06T05:37:14.135Z,80.78
2018-07-06T05:38:14.061Z,80.27
2018-07-06T05:39:14.053Z,80.38
2018-07-06T05:40:14.045Z,80.18
2018-07-06T05:41:14.025Z,80.47
2018-07-06T05:42:14.086Z,79.97
2018-07-06T05:43:14.006Z,80.31
2018-07-06T05:44:13.998Z,80.11
2018-07-06T05:45:13.992Z,80.51
2018-07-06T05:46:13.983Z,80.51
2018-07-06T05:47:14.036Z,80.82
2018-07-06T05:48:13.945Z,80.51
2018-07-06T05:49:13.939Z,80.82
2018-07-06T05:50:13.933Z,81.02
2018-07-06T05:51:13.912Z,81.22
2018-07-06T05:52:13.967Z,80.72
2018-07-06T05:53:13.899Z,80.18
2018-07-06T05:54:13.879Z,80.38
2018-07-06T05:55:13.868Z,80.38
2018-07-06T05:56:13.862Z,80.27
2018-07-06T05:57:13.939Z,80.07
2018-07-06T05:58:13.838Z,78.66
2018-07-06T05:59:13.882Z,79.67
2018-07-06T06:00:13.819Z,79.36
2018-07-06T06:01:13.811Z,79.36
2018-07-06T06:02:13.877Z,79.27
2018-07-06T06:03:13.785Z,79.53
2018-07-06T06:04:13.770Z,79.53
2018-07-06T06:05:13.759Z,79.23
2018-07-06T06:06:13.750Z,79.03
2018-07-06T06:07:13.809Z,78.52
2018-07-06T06:08:13.729Z,78.92
2018-07-06T06:09:13.715Z,78.83
2018-07-06T06:10:13.707Z,79.36
2018-07-06T06:11:13.695Z,79.27
2018-07-06T06:12:13.774Z,79.36
2018-07-06T06:13:13.674Z,80.18
2018-07-06T06:14:13.670Z,80.47
2018-07-06T06:15:13.658Z,80.07
2018-07-06T06:16:13.638Z,80.18
2018-07-06T06:17:13.693Z,80.62
2018-07-06T06:18:13.616Z,80.58
2018-07-06T06:19:13.605Z,80.41
2018-07-06T06:20:13.589Z,80.62
2018-07-06T06:21:13.570Z,80.62
2018-07-06T06:22:13.649Z,80.92
2018-07-06T06:23:13.564Z,80.38
2018-07-06T06:24:13.552Z,80.07
2018-07-06T06:25:13.536Z,80.58
2018-07-06T06:26:13.533Z,80.44
2018-07-06T06:27:13.591Z,79.67
2018-07-06T06:28:13.499Z,80.13
2018-07-06T06:29:13.493Z,80.13
2018-07-06T06:30:13.483Z,80.30
2018-07-06T06:31:13.468Z,79.19
2018-07-06T06:32:13.526Z,78.19
2018-07-06T06:33:13.506Z,78.19
2018-07-06T06:34:13.444Z,77.84
2018-07-06T06:35:13.430Z,77.75
2018-07-06T06:36:13.413Z,77.34
2018-07-06T06:37:13.484Z,76.94
2018-07-06T06:38:13.392Z,77.44
2018-07-06T06:39:13.381Z,77.50
2018-07-06T06:40:13.371Z,76.70
2018-07-06T06:41:13.369Z,76.70
2018-07-06T06:42:13.415Z,76.10
2018-07-06T06:43:13.341Z,75.49
2018-07-06T06:44:13.329Z,76.10
2018-07-06T06:45:13.322Z,76.50
2018-07-06T06:46:13.301Z,76.50
2018-07-06T06:47:13.376Z,76.70
2018-07-06T06:48:13.294Z,75.49
2018-07-06T06:49:13.280Z,76.30
2018-07-06T06:50:13.268Z,75.49
2018-07-06T06:51:13.252Z,74.69
2018-07-06T06:52:13.325Z,76.10
2018-07-06T06:53:13.233Z,75.09
2018-07-06T06:54:13.221Z,75.19
2018-07-06T06:55:13.214Z,76.40
2018-07-06T06:56:13.200Z,75.29
2018-07-06T06:57:13.260Z,75.19
2018-07-06T06:58:13.179Z,74.49
2018-07-06T06:59:13.173Z,74.69
2018-07-06T07:00:13.168Z,74.82
2018-07-06T07:01:13.151Z,75.43
2018-07-06T07:02:13.222Z,75.23
2018-07-06T07:03:13.123Z,75.93
2018-07-06T07:04:13.111Z,74.89
2018-07-06T07:05:13.097Z,75.09
2018-07-06T07:06:13.094Z,74.79
2018-07-06T07:07:13.078Z,74.62
2018-07-06T07:08:13.132Z,74.29
2018-07-06T07:09:13.053Z,74.42
2018-07-06T07:10:13.055Z,74.18
2018-07-06T07:11:13.035Z,74.49
2018-07-06T07:12:13.023Z,74.69
2018-07-06T07:13:13.079Z,74.49
2018-07-06T07:14:13.086Z,74.58
2018-07-06T07:15:13.124Z,74.38
2018-07-06T07:16:12.989Z,74.05
2018-07-06T07:17:12.972Z,73.95
2018-07-06T07:18:13.030Z,73.75
2018-07-06T07:19:12.947Z,73.44
2018-07-06T07:20:12.937Z,74.45
2018-07-06T07:21:12.923Z,73.24
2018-07-06T07:22:12.915Z,73.95
2018-07-06T07:23:12.966Z,74.05
2018-07-06T07:24:12.897Z,73.85
2018-07-06T07:25:13.076Z,73.21
2018-07-06T07:26:12.872Z,72.84
2018-07-06T07:27:12.866Z,73.31
2018-07-06T07:28:13.076Z,73.00
2018-07-06T07:29:12.931Z,73.11
2018-07-06T07:30:12.913Z,73.51
2018-07-06T07:31:12.830Z,73.00
2018-07-06T07:32:12.913Z,73.91
2018-07-06T07:33:13.001Z,72.71
2018-07-06T07:34:12.889Z,72.41
2018-07-06T07:35:12.976Z,72.50
2018-07-06T07:36:12.855Z,73.00
2018-07-06T07:37:12.853Z,72.74
2018-07-06T07:38:12.949Z,73.51
2018-07-06T07:39:12.806Z,73.85
2018-07-06T07:40:12.803Z,73.85
2018-07-06T07:41:12.815Z,73.81
2018-07-06T07:42:12.816Z,72.81
2018-07-06T07:43:12.910Z,73.91
2018-07-06T07:44:12.764Z,73.71
2018-07-06T07:45:12.736Z,73.21
2018-07-06T07:46:12.749Z,73.61
2018-07-06T07:47:12.733Z,73.11
2018-07-06T07:48:12.858Z,73.91
2018-07-06T07:49:12.696Z,74.01
2018-07-06T07:50:12.606Z,73.91
2018-07-06T07:51:12.596Z,72.77
2018-07-06T07:52:12.592Z,73.21
2018-07-06T07:53:12.766Z,73.21
2018-07-06T07:54:12.675Z,72.71
2018-07-06T07:55:12.572Z,73.71
2018-07-06T07:56:12.539Z,72.81
2018-07-06T07:57:12.530Z,73.38
2018-07-06T07:58:12.591Z,72.77
2018-07-06T07:59:12.503Z,72.27
2018-07-06T08:00:12.497Z,72.67
2018-07-06T08:01:12.669Z,71.87
2018-07-06T08:02:12.475Z,72.47
2018-07-06T08:03:12.528Z,73.07
2018-07-06T08:04:12.456Z,71.73
2018-07-06T08:05:12.448Z,71.94
2018-07-06T08:06:12.453Z,71.50
2018-07-06T08:07:12.433Z,71.20
2018-07-06T08:08:12.590Z,70.16
2018-07-06T08:09:12.400Z,70.70
2018-07-06T08:10:12.391Z,70.19
2018-07-06T08:11:12.377Z,70.63
2018-07-06T08:12:12.367Z,71.13
2018-07-06T08:13:12.418Z,70.83
2018-07-06T08:14:12.347Z,70.70
2018-07-06T08:15:12.336Z,70.09
2018-07-06T08:16:12.315Z,70.56
2018-07-06T08:17:12.308Z,69.99
2018-07-06T08:18:12.367Z,69.15
2018-07-06T08:19:12.287Z,69.35
2018-07-06T08:20:12.270Z,69.46
2018-07-06T08:21:12.264Z,69.06
2018-07-06T08:22:12.251Z,69.35
2018-07-06T08:23:12.314Z,69.02
2018-07-06T08:24:12.238Z,68.85
2018-07-06T08:25:12.232Z,68.95
2018-07-06T08:26:12.207Z,69.09
2018-07-06T08:27:12.181Z,69.99
2018-07-06T08:28:12.261Z,68.88
2018-07-06T08:29:12.173Z,69.69
2018-07-06T08:30:12.189Z,69.72
2018-07-06T08:31:12.149Z,70.03
2018-07-06T08:32:12.139Z,69.42
2018-07-06T08:33:12.196Z,69.29
2018-07-06T08:34:12.122Z,69.59
2018-07-06T08:35:12.120Z,68.99
2018-07-06T08:36:12.106Z,68.85
2018-07-06T08:37:12.089Z,67.65
2018-07-06T08:38:12.179Z,66.52
2018-07-06T08:39:12.058Z,66.71
2018-07-06T08:40:12.054Z,67.32
2018-07-06T08:41:12.035Z,67.32
2018-07-06T08:42:12.030Z,67.61
2018-07-06T08:43:12.081Z,66.82
2018-07-06T08:44:11.997Z,67.95
2018-07-06T08:45:11.998Z,68.35
2018-07-06T08:46:11.989Z,67.61
2018-07-06T08:47:11.975Z,66.82
2018-07-06T08:48:11.959Z,66.71
2018-07-06T08:49:12.031Z,66.01
2018-07-06T08:50:11.991Z,65.01
2018-07-06T08:51:11.938Z,65.41
2018-07-06T08:52:11.935Z,64.61
2018-07-06T08:53:11.935Z,64.31
2018-07-06T08:54:12.012Z,65.31
2018-07-06T08:55:11.872Z,65.31
2018-07-06T08:56:11.877Z,64.68
2018-07-06T08:57:11.878Z,64.58
2018-07-06T08:58:11.969Z,64.28
2018-07-06T08:59:11.926Z,63.87
2018-07-06T09:00:11.837Z,62.97
2018-07-06T09:01:11.882Z,64.07
2018-07-06T09:02:11.825Z,63.37
2018-07-06T09:03:11.819Z,63.54
2018-07-06T09:04:11.917Z,63.37
2018-07-06T09:05:11.790Z,63.14
2018-07-06T09:06:11.770Z,63.78
2018-07-06T09:07:11.780Z,63.87
2018-07-06T09:08:11.761Z,64.37
2018-07-06T09:09:11.840Z,63.67
2018-07-06T09:10:11.722Z,62.97
2018-07-06T09:11:11.715Z,63.28
2018-07-06T09:12:11.688Z,64.07
2018-07-06T09:13:11.693Z,63.75
2018-07-06T09:14:11.749Z,63.84
2018-07-06T09:15:11.669Z,63.84
2018-07-06T09:16:11.701Z,63.14
2018-07-06T09:17:11.649Z,64.12
2018-07-06T09:18:11.633Z,63.64
2018-07-06T09:19:11.729Z,63.14
2018-07-06T09:20:11.808Z,62.94
2018-07-06T09:21:11.604Z,64.15
2018-07-06T09:22:11.586Z,64.01
2018-07-06T09:23:11.578Z,62.34
2018-07-06T09:24:11.682Z,64.15
2018-07-06T09:25:11.549Z,62.94
2018-07-06T09:26:11.857Z,62.84
2018-07-06T09:27:11.529Z,63.04
2018-07-06T09:28:11.512Z,63.01
2018-07-06T09:29:11.567Z,63.01
2018-07-06T09:30:11.499Z,63.24
2018-07-06T09:31:11.482Z,63.64
2018-07-06T09:32:11.469Z,63.54
2018-07-06T09:33:11.461Z,63.17
2018-07-06T09:34:11.506Z,63.67
2018-07-06T09:35:11.441Z,63.54
2018-07-06T09:36:11.429Z,63.75
2018-07-06T09:37:11.420Z,64.45
2018-07-06T09:38:11.406Z,62.74
2018-07-06T09:39:11.474Z,63.51
2018-07-06T09:40:11.380Z,63.04
2018-07-06T09:41:11.384Z,63.14
2018-07-06T09:42:11.361Z,62.61
2018-07-06T09:43:11.351Z,63.42
2018-07-06T09:44:11.411Z,61.21
2018-07-06T09:45:11.328Z,61.28
2018-07-06T09:46:11.325Z,61.68
2018-07-06T09:47:11.310Z,61.28
2018-07-06T09:48:11.304Z,62.08
2018-07-06T09:49:11.381Z,63.08
2018-07-06T09:50:11.273Z,62.38
2018-07-06T09:51:11.272Z,62.08
2018-07-06T09:52:11.255Z,61.45
2018-07-06T09:53:11.245Z,61.25
2018-07-06T09:54:11.300Z,61.65
2018-07-06T09:55:11.229Z,61.35
2018-07-06T09:56:11.219Z,61.25
2018-07-06T09:57:11.198Z,60.45
2018-07-06T09:58:11.181Z,61.45
2018-07-06T09:59:11.258Z,60.12
2018-07-06T10:00:11.167Z,60.42
2018-07-06T10:01:11.162Z,60.52
2018-07-06T10:02:11.139Z,59.66
2018-07-06T10:03:11.133Z,59.36
2018-07-06T10:04:11.205Z,58.84
2018-07-06T10:05:11.112Z,58.64
2018-07-06T10:06:11.102Z,58.17
2018-07-06T10:07:11.084Z,59.19
2018-07-06T10:08:11.071Z,59.32
2018-07-06T10:09:11.152Z,59.42
2018-07-06T10:10:11.095Z,60.72
2018-07-06T10:11:11.049Z,60.35
2018-07-06T10:12:11.048Z,60.05
2018-07-06T10:13:11.025Z,60.02
2018-07-06T10:14:11.080Z,60.32
2018-07-06T10:15:11.013Z,58.99
2018-07-06T10:16:10.998Z,59.89
2018-07-06T10:17:10.976Z,58.67
2018-07-06T10:18:10.972Z,58.84
2018-07-06T10:19:11.026Z,58.34
2018-07-06T10:20:10.945Z,58.51
2018-07-06T10:21:10.935Z,56.91
2018-07-06T10:22:10.929Z,55.62
2018-07-06T10:23:10.923Z,55.74
2018-07-06T10:24:10.990Z,57.64
2018-07-06T10:25:10.884Z,57.84
2018-07-06T10:26:10.884Z,58.69
2018-07-06T10:27:10.869Z,58.39
2018-07-06T10:28:10.861Z,58.59
2018-07-06T10:29:10.955Z,58.80
2018-07-06T10:30:10.980Z,58.47
2018-07-06T10:31:10.831Z,58.26
2018-07-06T10:32:10.813Z,58.84
2018-07-06T10:33:10.855Z,57.41
2018-07-06T10:34:10.820Z,57.81
2018-07-06T10:35:10.848Z,57.01
2018-07-06T10:36:10.784Z,56.88
2018-07-06T10:37:10.783Z,55.49
2018-07-06T10:38:10.749Z,55.66
2018-07-06T10:39:10.745Z,55.58
2018-07-06T10:40:11.912Z,56.51
2018-07-06T10:41:10.721Z,57.31
2018-07-06T10:42:10.700Z,55.58
2018-07-06T10:43:10.720Z,55.51
2018-07-06T10:44:10.693Z,56.11
2018-07-06T10:45:10.752Z,56.41
2018-07-06T10:46:10.666Z,58.91
2018-07-06T10:47:10.650Z,56.61
2018-07-06T10:48:10.637Z,56.91
2018-07-06T10:49:10.627Z,57.04
2018-07-06T10:50:10.695Z,57.64
2018-07-06T10:51:10.608Z,57.24
2018-07-06T10:52:10.630Z,57.04
2018-07-06T10:53:10.618Z,57.01
2018-07-06T10:54:10.573Z,57.31
2018-07-06T10:55:10.702Z,56.88
2018-07-06T10:56:10.570Z,55.79
2018-07-06T10:57:10.545Z,56.48
2018-07-06T10:58:10.531Z,57.18
2018-07-06T10:59:10.514Z,57.28
2018-07-06T11:00:10.661Z,55.88
2018-07-06T11:01:10.496Z,55.46
2018-07-06T11:02:10.491Z,55.46
2018-07-06T11:03:10.480Z,54.66
2018-07-06T11:04:10.785Z,55.66
2018-07-06T11:05:10.630Z,55.73
2018-07-06T11:06:10.447Z,54.81
2018-07-06T11:07:10.437Z,52.92
2018-07-06T11:08:10.439Z,53.61
2018-07-06T11:09:10.412Z,53.41
2018-07-06T11:10:10.454Z,53.19
2018-07-06T11:11:10.399Z,52.89
2018-07-06T11:12:10.376Z,53.41
2018-07-06T11:13:10.364Z,53.71
2018-07-06T11:14:10.373Z,53.49
2018-07-06T11:15:10.417Z,53.29
2018-07-06T11:16:10.339Z,55.08
2018-07-06T11:17:10.323Z,54.91
2018-07-06T11:18:10.313Z,54.81
2018-07-06T11:19:10.370Z,55.48
2018-07-06T11:20:10.411Z,55.46
2018-07-06T11:21:10.331Z,53.56
2018-07-06T11:22:10.281Z,51.05
2018-07-06T11:23:10.263Z,51.45
2018-07-06T11:24:10.252Z,51.54
2018-07-06T11:25:10.587Z,52.54
2018-07-06T11:26:10.226Z,51.05
2018-07-06T11:27:10.211Z,50.65
2018-07-06T11:28:10.210Z,50.33
2018-07-06T11:29:10.197Z,49.21
2018-07-06T11:30:10.276Z,49.51
2018-07-06T11:31:10.173Z,49.11
2018-07-06T11:32:10.232Z,49.53
2018-07-06T11:33:10.155Z,50.35
2018-07-06T11:34:10.159Z,50.68
2018-07-06T11:35:10.203Z,51.37
2018-07-06T11:36:10.121Z,51.87
2018-07-06T11:37:10.127Z,51.95
2018-07-06T11:38:10.313Z,51.25
2018-07-06T11:39:10.089Z,51.95
2018-07-06T11:40:10.136Z,50.90
2018-07-06T11:41:10.065Z,50.88
2018-07-06T11:42:10.058Z,49.46
2018-07-06T11:43:10.038Z,49.44
2018-07-06T11:44:10.034Z,48.54
2018-07-06T11:45:10.102Z,48.22
2018-07-06T11:46:10.012Z,48.00
2018-07-06T11:47:10.001Z,47.50
2018-07-06T11:48:09.987Z,47.61
2018-07-06T11:49:09.973Z,45.82
2018-07-06T11:50:10.063Z,47.98
2018-07-06T11:51:09.968Z,46.81
2018-07-06T11:52:09.939Z,47.33
2018-07-06T11:53:09.932Z,48.00
2018-07-06T11:54:09.920Z,47.53
2018-07-06T11:55:10.001Z,47.41
2018-07-06T11:56:09.925Z,48.52
2018-07-06T11:57:09.889Z,48.35
2018-07-06T11:58:09.922Z,49.46
2018-07-06T11:59:09.862Z,50.48
2018-07-06T12:00:09.948Z,48.66
2018-07-06T12:01:09.887Z,48.37
2018-07-06T12:02:09.838Z,47.60
2018-07-06T12:03:09.834Z,49.49
2018-07-06T12:04:09.839Z,48.66
2018-07-06T12:05:09.912Z,48.27
2018-07-06T12:06:09.793Z,47.97
2018-07-06T12:07:09.766Z,48.29
2018-07-06T12:08:09.758Z,49.49
2018-07-06T12:09:09.743Z,49.36
2018-07-06T12:10:10.641Z,48.44
2018-07-06T12:14:49.314Z,47.28
2018-07-06T12:15:49.509Z,46.77
2018-07-06T12:16:49.283Z,46.77
2018-07-06T12:20:18.980Z,47.43
2018-07-06T12:21:21.740Z,47.57
2018-07-06T12:22:18.997Z,48.86
2018-07-06T12:23:20.609Z,47.47
2018-07-06T12:27:10.761Z,48.96
2018-07-06T12:33:09.871Z,47.28
2018-07-06T13:01:54.242Z,45.78
2018-07-06T13:02:54.468Z,46.19
